In Rescue
 
Open Full Screen Window  High Contrast Mode
Wind Gusting 00 knots
06
June 22, 2024 8:43 PM EDT
Present Weather: Heavy Drizzle
Weather Information
Wind Direction
  060 °
Wind Speed
  06 kt (7 mph)
Wind Gust
  00 kt (0 mph)
Altimeter
29.68 in
Visibility
5 SM
Temperature
18° C
64° F
Dewpoint
18° C
64° F
Humidity
100%
1hr Rain Fall
00.07 in.
24hr Rain Fall
00.97 in.
Sky Condition
Overcast @ 700 ft
IFR

METAR KISQ 230043Z AUTO 06006KT 5SM +DZ OVC007 18/18 A2968 RMK AO2 P0007 T01770175

FAA Disclaimer: The data displayed is for advisory purposes only and is not to be used for flight planning or operations.